sensor_id;sensor_type;location;lat;lon;timestamp;P1;durP1;ratioP1;P2;durP2;ratioP2
10166;SDS011;62970;53.130;8.244;2022-08-19T00:00:33;6.60;;;6.00;;
10166;SDS011;62970;53.130;8.244;2022-08-19T00:03:05;6.10;;;5.60;;
10166;SDS011;62970;53.130;8.244;2022-08-19T00:05:34;6.50;;;5.93;;
10166;SDS011;62970;53.130;8.244;2022-08-19T00:08:05;7.17;;;6.57;;
10166;SDS011;62970;53.130;8.244;2022-08-19T00:10:35;8.10;;;7.40;;
10166;SDS011;62970;53.130;8.244;2022-08-19T00:13:07;8.23;;;7.43;;
10166;SDS011;62970;53.130;8.244;2022-08-19T00:15:36;11.83;;;10.00;;
10166;SDS011;62970;53.130;8.244;2022-08-19T00:18:09;14.23;;;11.63;;
10166;SDS011;62970;53.130;8.244;2022-08-19T00:20:40;21.90;;;16.20;;
10166;SDS011;62970;53.130;8.244;2022-08-19T00:23:09;24.70;;;17.33;;
10166;SDS011;62970;53.130;8.244;2022-08-19T00:25:41;28.73;;;18.30;;
10166;SDS011;62970;53.130;8.244;2022-08-19T00:28:17;27.23;;;18.37;;
10166;SDS011;62970;53.130;8.244;2022-08-19T00:30:48;30.20;;;19.97;;
10166;SDS011;62970;53.130;8.244;2022-08-19T00:33:19;32.50;;;22.67;;
10166;SDS011;62970;53.130;8.244;2022-08-19T00:35:52;35.57;;;24.97;;
10166;SDS011;62970;53.130;8.244;2022-08-19T00:38:23;41.17;;;25.03;;
10166;SDS011;62970;53.130;8.244;2022-08-19T00:40:54;38.77;;;25.43;;
10166;SDS011;62970;53.130;8.244;2022-08-19T00:43:26;52.57;;;29.40;;
10166;SDS011;62970;53.130;8.244;2022-08-19T00:45:56;52.93;;;32.17;;
10166;SDS011;62970;53.130;8.244;2022-08-19T00:48:31;53.53;;;32.57;;
10166;SDS011;62970;53.130;8.244;2022-08-19T00:51:02;52.60;;;32.03;;
10166;SDS011;62970;53.130;8.244;2022-08-19T00:53:33;48.47;;;31.73;;
10166;SDS011;62970;53.130;8.244;2022-08-19T00:56:02;44.10;;;28.70;;
10166;SDS011;62970;53.130;8.244;2022-08-19T00:58:36;42.97;;;29.07;;
10166;SDS011;62970;53.130;8.244;2022-08-19T01:01:07;41.53;;;25.97;;
10166;SDS011;62970;53.130;8.244;2022-08-19T01:03:37;33.20;;;22.93;;
10166;SDS011;62970;53.130;8.244;2022-08-19T01:06:06;28.67;;;21.57;;
10166;SDS011;62970;53.130;8.244;2022-08-19T01:08:36;27.83;;;19.50;;
10166;SDS011;62970;53.130;8.244;2022-08-19T01:11:05;29.47;;;19.77;;
10166;SDS011;62970;53.130;8.244;2022-08-19T01:13:39;30.70;;;19.97;;
10166;SDS011;62970;53.130;8.244;2022-08-19T01:16:09;30.93;;;19.37;;
10166;SDS011;62970;53.130;8.244;2022-08-19T01:18:41;28.00;;;18.67;;
10166;SDS011;62970;53.130;8.244;2022-08-19T01:21:12;27.37;;;18.10;;
10166;SDS011;62970;53.130;8.244;2022-08-19T01:23:53;25.27;;;16.20;;
10166;SDS011;62970;53.130;8.244;2022-08-19T01:26:23;27.10;;;16.73;;
10166;SDS011;62970;53.130;8.244;2022-08-19T01:28:54;24.40;;;15.77;;
10166;SDS011;62970;53.130;8.244;2022-08-19T01:31:27;24.20;;;15.07;;
10166;SDS011;62970;53.130;8.244;2022-08-19T01:33:58;21.57;;;14.83;;
10166;SDS011;62970;53.130;8.244;2022-08-19T01:36:31;22.33;;;13.90;;
10166;SDS011;62970;53.130;8.244;2022-08-19T01:39:09;18.27;;;13.00;;
10166;SDS011;62970;53.130;8.244;2022-08-19T01:41:44;19.43;;;11.67;;
10166;SDS011;62970;53.130;8.244;2022-08-19T01:44:13;14.70;;;9.87;;
10166;SDS011;62970;53.130;8.244;2022-08-19T01:46:50;12.57;;;9.67;;
10166;SDS011;62970;53.130;8.244;2022-08-19T01:49:22;12.33;;;8.80;;
10166;SDS011;62970;53.130;8.244;2022-08-19T01:51:56;8.93;;;7.67;;
10166;SDS011;62970;53.130;8.244;2022-08-19T01:54:30;7.83;;;6.90;;
10166;SDS011;62970;53.130;8.244;2022-08-19T01:57:02;8.93;;;6.60;;
10166;SDS011;62970;53.130;8.244;2022-08-19T01:59:40;6.93;;;6.03;;
10166;SDS011;62970;53.130;8.244;2022-08-19T02:02:16;7.03;;;6.33;;
10166;SDS011;62970;53.130;8.244;2022-08-19T02:04:47;6.33;;;5.73;;
10166;SDS011;62970;53.130;8.244;2022-08-19T02:07:18;5.63;;;5.10;;
10166;SDS011;62970;53.130;8.244;2022-08-19T02:09:51;6.17;;;5.30;;
10166;SDS011;62970;53.130;8.244;2022-08-19T02:12:22;5.43;;;4.93;;
10166;SDS011;62970;53.130;8.244;2022-08-19T02:14:52;6.73;;;5.60;;
10166;SDS011;62970;53.130;8.244;2022-08-19T02:17:21;5.33;;;4.73;;
10166;SDS011;62970;53.130;8.244;2022-08-19T02:19:50;5.93;;;5.43;;
10166;SDS011;62970;53.130;8.244;2022-08-19T02:22:21;5.47;;;4.97;;
10166;SDS011;62970;53.130;8.244;2022-08-19T02:24:54;5.07;;;4.67;;
10166;SDS011;62970;53.130;8.244;2022-08-19T02:27:24;5.23;;;4.80;;
10166;SDS011;62970;53.130;8.244;2022-08-19T02:29:53;4.87;;;4.40;;
10166;SDS011;62970;53.130;8.244;2022-08-19T02:32:22;4.73;;;4.33;;
10166;SDS011;62970;53.130;8.244;2022-08-19T02:34:51;5.17;;;4.77;;
10166;SDS011;62970;53.130;8.244;2022-08-19T02:37:28;5.00;;;4.60;;
10166;SDS011;62970;53.130;8.244;2022-08-19T02:40:13;5.20;;;4.67;;
10166;SDS011;62970;53.130;8.244;2022-08-19T02:42:43;4.83;;;4.43;;
10166;SDS011;62970;53.130;8.244;2022-08-19T02:45:15;5.53;;;5.03;;
10166;SDS011;62970;53.130;8.244;2022-08-19T02:47:45;5.43;;;4.93;;
10166;SDS011;62970;53.130;8.244;2022-08-19T02:50:14;5.47;;;4.97;;
10166;SDS011;62970;53.130;8.244;2022-08-19T02:52:44;4.63;;;4.23;;
10166;SDS011;62970;53.130;8.244;2022-08-19T02:55:16;5.20;;;4.70;;
10166;SDS011;62970;53.130;8.244;2022-08-19T02:57:48;4.80;;;4.40;;
10166;SDS011;62970;53.130;8.244;2022-08-19T03:00:17;5.90;;;5.40;;
10166;SDS011;62970;53.130;8.244;2022-08-19T03:02:46;5.37;;;4.87;;
10166;SDS011;62970;53.130;8.244;2022-08-19T03:05:17;5.77;;;5.17;;
10166;SDS011;62970;53.130;8.244;2022-08-19T03:07:47;6.07;;;5.57;;
10166;SDS011;62970;53.130;8.244;2022-08-19T03:10:21;6.10;;;5.60;;
10166;SDS011;62970;53.130;8.244;2022-08-19T03:12:50;5.70;;;5.20;;
10166;SDS011;62970;53.130;8.244;2022-08-19T03:15:23;5.83;;;5.33;;
10166;SDS011;62970;53.130;8.244;2022-08-19T03:17:52;5.03;;;4.63;;
10166;SDS011;62970;53.130;8.244;2022-08-19T03:20:21;4.90;;;4.47;;
10166;SDS011;62970;53.130;8.244;2022-08-19T03:22:54;5.10;;;4.60;;
10166;SDS011;62970;53.130;8.244;2022-08-19T03:25:26;4.47;;;4.07;;
10166;SDS011;62970;53.130;8.244;2022-08-19T03:27:56;4.93;;;4.53;;
10166;SDS011;62970;53.130;8.244;2022-08-19T03:30:28;4.27;;;3.87;;
10166;SDS011;62970;53.130;8.244;2022-08-19T03:32:57;4.37;;;4.00;;
10166;SDS011;62970;53.130;8.244;2022-08-19T03:35:26;4.40;;;4.00;;
10166;SDS011;62970;53.130;8.244;2022-08-19T03:37:58;4.40;;;4.00;;
10166;SDS011;62970;53.130;8.244;2022-08-19T03:40:30;3.90;;;3.60;;
10166;SDS011;62970;53.130;8.244;2022-08-19T03:43:07;4.10;;;3.80;;
10166;SDS011;62970;53.130;8.244;2022-08-19T03:45:38;4.20;;;3.80;;
10166;SDS011;62970;53.130;8.244;2022-08-19T03:48:07;4.17;;;3.87;;
10166;SDS011;62970;53.130;8.244;2022-08-19T03:50:38;4.47;;;4.07;;
10166;SDS011;62970;53.130;8.244;2022-08-19T03:53:08;4.80;;;4.40;;
10166;SDS011;62970;53.130;8.244;2022-08-19T03:55:44;4.23;;;3.87;;
10166;SDS011;62970;53.130;8.244;2022-08-19T03:58:13;4.47;;;4.07;;
10166;SDS011;62970;53.130;8.244;2022-08-19T04:00:43;4.23;;;3.93;;
10166;SDS011;62970;53.130;8.244;2022-08-19T04:03:12;4.37;;;3.97;;
10166;SDS011;62970;53.130;8.244;2022-08-19T04:05:44;3.90;;;3.60;;
10166;SDS011;62970;53.130;8.244;2022-08-19T04:08:16;4.37;;;4.00;;
10166;SDS011;62970;53.130;8.244;2022-08-19T04:10:50;4.17;;;3.87;;
10166;SDS011;62970;53.130;8.244;2022-08-19T04:13:19;4.50;;;4.10;;
10166;SDS011;62970;53.130;8.244;2022-08-19T04:15:50;4.13;;;3.77;;
10166;SDS011;62970;53.130;8.244;2022-08-19T04:18:19;4.53;;;4.13;;
10166;SDS011;62970;53.130;8.244;2022-08-19T04:20:50;4.50;;;4.10;;
10166;SDS011;62970;53.130;8.244;2022-08-19T04:23:19;4.50;;;4.10;;
10166;SDS011;62970;53.130;8.244;2022-08-19T04:25:51;4.80;;;4.40;;
10166;SDS011;62970;53.130;8.244;2022-08-19T04:28:22;4.80;;;4.30;;
10166;SDS011;62970;53.130;8.244;2022-08-19T04:30:54;4.67;;;4.27;;
10166;SDS011;62970;53.130;8.244;2022-08-19T04:33:24;4.80;;;4.30;;
10166;SDS011;62970;53.130;8.244;2022-08-19T04:35:53;4.87;;;4.47;;
10166;SDS011;62970;53.130;8.244;2022-08-19T04:38:23;5.27;;;4.77;;
10166;SDS011;62970;53.130;8.244;2022-08-19T04:40:56;4.70;;;4.30;;
10166;SDS011;62970;53.130;8.244;2022-08-19T04:43:38;5.00;;;4.60;;
10166;SDS011;62970;53.130;8.244;2022-08-19T04:46:11;4.70;;;4.27;;
10166;SDS011;62970;53.130;8.244;2022-08-19T04:48:42;5.23;;;4.73;;
10166;SDS011;62970;53.130;8.244;2022-08-19T04:51:11;4.97;;;4.57;;
10166;SDS011;62970;53.130;8.244;2022-08-19T04:53:42;4.90;;;4.50;;
10166;SDS011;62970;53.130;8.244;2022-08-19T04:56:16;5.33;;;4.83;;
10166;SDS011;62970;53.130;8.244;2022-08-19T04:58:51;5.00;;;4.50;;
10166;SDS011;62970;53.130;8.244;2022-08-19T05:01:28;4.90;;;4.50;;
10166;SDS011;62970;53.130;8.244;2022-08-19T05:04:02;4.40;;;4.00;;
10166;SDS011;62970;53.130;8.244;2022-08-19T05:06:33;4.63;;;4.23;;
10166;SDS011;62970;53.130;8.244;2022-08-19T05:09:04;5.03;;;4.57;;
10166;SDS011;62970;53.130;8.244;2022-08-19T05:11:36;6.00;;;4.80;;
10166;SDS011;62970;53.130;8.244;2022-08-19T05:14:06;5.30;;;4.80;;
10166;SDS011;62970;53.130;8.244;2022-08-19T05:16:37;5.60;;;5.10;;
10166;SDS011;62970;53.130;8.244;2022-08-19T05:19:07;4.87;;;4.37;;
10166;SDS011;62970;53.130;8.244;2022-08-19T05:21:49;5.87;;;4.90;;
10166;SDS011;62970;53.130;8.244;2022-08-19T05:24:31;5.27;;;4.77;;
10166;SDS011;62970;53.130;8.244;2022-08-19T05:27:04;4.87;;;4.47;;
10166;SDS011;62970;53.130;8.244;2022-08-19T05:29:33;6.00;;;4.67;;
10166;SDS011;62970;53.130;8.244;2022-08-19T05:32:04;4.73;;;4.33;;
10166;SDS011;62970;53.130;8.244;2022-08-19T05:34:37;5.07;;;4.57;;
10166;SDS011;62970;53.130;8.244;2022-08-19T05:37:07;4.80;;;4.30;;
10166;SDS011;62970;53.130;8.244;2022-08-19T05:39:39;4.77;;;4.37;;
10166;SDS011;62970;53.130;8.244;2022-08-19T05:42:14;4.30;;;3.90;;
10166;SDS011;62970;53.130;8.244;2022-08-19T05:44:45;5.53;;;3.70;;
10166;SDS011;62970;53.130;8.244;2022-08-19T05:47:14;4.03;;;3.63;;
10166;SDS011;62970;53.130;8.244;2022-08-19T05:49:47;3.67;;;3.37;;
10166;SDS011;62970;53.130;8.244;2022-08-19T05:52:19;4.10;;;3.70;;
10166;SDS011;62970;53.130;8.244;2022-08-19T05:54:48;3.83;;;3.53;;
10166;SDS011;62970;53.130;8.244;2022-08-19T05:57:22;3.47;;;3.17;;
10166;SDS011;62970;53.130;8.244;2022-08-19T05:59:54;3.63;;;3.33;;
10166;SDS011;62970;53.130;8.244;2022-08-19T06:02:25;3.57;;;3.30;;
10166;SDS011;62970;53.130;8.244;2022-08-19T06:04:55;3.15;;;2.95;;
10166;SDS011;62970;53.130;8.244;2022-08-19T06:07:24;2.92;;;2.72;;
10166;SDS011;62970;53.130;8.244;2022-08-19T06:09:53;2.92;;;2.72;;
10166;SDS011;62970;53.130;8.244;2022-08-19T06:12:26;2.85;;;2.55;;
10166;SDS011;62970;53.130;8.244;2022-08-19T06:14:58;2.70;;;2.50;;
10166;SDS011;62970;53.130;8.244;2022-08-19T06:17:29;2.72;;;2.53;;
10166;SDS011;62970;53.130;8.244;2022-08-19T06:19:59;2.50;;;2.30;;
10166;SDS011;62970;53.130;8.244;2022-08-19T06:22:31;3.30;;;2.58;;
10166;SDS011;62970;53.130;8.244;2022-08-19T06:25:07;3.33;;;3.03;;
10166;SDS011;62970;53.130;8.244;2022-08-19T06:27:41;4.72;;;3.15;;
10166;SDS011;62970;53.130;8.244;2022-08-19T06:30:11;3.85;;;2.97;;
10166;SDS011;62970;53.130;8.244;2022-08-19T06:32:41;5.45;;;3.55;;
10166;SDS011;62970;53.130;8.244;2022-08-19T06:35:10;5.32;;;3.08;;
10166;SDS011;62970;53.130;8.244;2022-08-19T06:37:40;6.15;;;3.70;;
10166;SDS011;62970;53.130;8.244;2022-08-19T06:40:10;6.57;;;4.60;;
10166;SDS011;62970;53.130;8.244;2022-08-19T06:42:43;7.43;;;4.85;;
10166;SDS011;62970;53.130;8.244;2022-08-19T06:45:12;10.90;;;5.97;;
10166;SDS011;62970;53.130;8.244;2022-08-19T06:47:42;10.93;;;6.35;;
10166;SDS011;62970;53.130;8.244;2022-08-19T06:50:13;10.43;;;6.40;;
10166;SDS011;62970;53.130;8.244;2022-08-19T06:52:42;8.57;;;5.03;;
10166;SDS011;62970;53.130;8.244;2022-08-19T06:55:11;6.85;;;4.53;;
10166;SDS011;62970;53.130;8.244;2022-08-19T06:57:44;5.90;;;3.95;;
10166;SDS011;62970;53.130;8.244;2022-08-19T07:00:16;4.15;;;3.13;;
10166;SDS011;62970;53.130;8.244;2022-08-19T07:02:45;3.17;;;2.40;;
10166;SDS011;62970;53.130;8.244;2022-08-19T07:05:14;3.35;;;2.20;;
10166;SDS011;62970;53.130;8.244;2022-08-19T07:07:44;3.08;;;1.90;;
10166;SDS011;62970;53.130;8.244;2022-08-19T07:10:13;1.50;;;1.40;;
10166;SDS011;62970;53.130;8.244;2022-08-19T07:12:45;2.00;;;1.60;;
10166;SDS011;62970;53.130;8.244;2022-08-19T07:15:15;1.55;;;1.45;;
10166;SDS011;62970;53.130;8.244;2022-08-19T07:17:46;2.38;;;1.50;;
10166;SDS011;62970;53.130;8.244;2022-08-19T07:20:16;2.38;;;1.63;;
10166;SDS011;62970;53.130;8.244;2022-08-19T07:22:46;1.40;;;1.30;;
10166;SDS011;62970;53.130;8.244;2022-08-19T07:25:16;1.25;;;1.17;;
10166;SDS011;62970;53.130;8.244;2022-08-19T07:27:50;2.22;;;1.20;;
10166;SDS011;62970;53.130;8.244;2022-08-19T07:30:20;1.02;;;1.02;;
10166;SDS011;62970;53.130;8.244;2022-08-19T07:32:50;1.58;;;1.48;;
10166;SDS011;62970;53.130;8.244;2022-08-19T07:35:21;1.20;;;1.10;;
10166;SDS011;62970;53.130;8.244;2022-08-19T07:37:51;1.40;;;1.20;;
10166;SDS011;62970;53.130;8.244;2022-08-19T07:40:20;1.20;;;1.10;;
10166;SDS011;62970;53.130;8.244;2022-08-19T07:42:52;1.10;;;1.08;;
10166;SDS011;62970;53.130;8.244;2022-08-19T07:45:21;1.83;;;1.35;;
10166;SDS011;62970;53.130;8.244;2022-08-19T07:47:52;1.40;;;1.30;;
10166;SDS011;62970;53.130;8.244;2022-08-19T07:50:22;1.50;;;1.40;;
10166;SDS011;62970;53.130;8.244;2022-08-19T07:52:51;1.35;;;1.25;;
10166;SDS011;62970;53.130;8.244;2022-08-19T07:55:23;1.30;;;1.20;;
10166;SDS011;62970;53.130;8.244;2022-08-19T07:57:56;2.03;;;1.38;;
10166;SDS011;62970;53.130;8.244;2022-08-19T08:00:25;1.25;;;1.15;;
10166;SDS011;62970;53.130;8.244;2022-08-19T08:02:55;1.42;;;1.30;;
10166;SDS011;62970;53.130;8.244;2022-08-19T08:05:25;1.70;;;1.38;;
10166;SDS011;62970;53.130;8.244;2022-08-19T08:08:06;1.67;;;1.33;;
10166;SDS011;62970;53.130;8.244;2022-08-19T08:10:48;1.88;;;1.55;;
10166;SDS011;62970;53.130;8.244;2022-08-19T08:13:20;1.50;;;1.40;;
10166;SDS011;62970;53.130;8.244;2022-08-19T08:15:50;1.15;;;1.10;;
10166;SDS011;62970;53.130;8.244;2022-08-19T08:18:20;1.50;;;1.30;;
10166;SDS011;62970;53.130;8.244;2022-08-19T08:20:49;2.08;;;1.30;;
10166;SDS011;62970;53.130;8.244;2022-08-19T08:23:18;1.60;;;1.50;;
10166;SDS011;62970;53.130;8.244;2022-08-19T08:25:51;1.35;;;1.25;;
10166;SDS011;62970;53.130;8.244;2022-08-19T08:28:25;1.38;;;1.27;;
10166;SDS011;62970;53.130;8.244;2022-08-19T08:30:55;1.25;;;1.15;;
10166;SDS011;62970;53.130;8.244;2022-08-19T08:33:27;1.60;;;1.50;;
10166;SDS011;62970;53.130;8.244;2022-08-19T08:35:57;1.58;;;1.48;;
10166;SDS011;62970;53.130;8.244;2022-08-19T08:38:26;1.50;;;1.30;;
10166;SDS011;62970;53.130;8.244;2022-08-19T08:40:57;2.03;;;1.50;;
10166;SDS011;62970;53.130;8.244;2022-08-19T08:43:40;1.67;;;1.20;;
10166;SDS011;62970;53.130;8.244;2022-08-19T08:46:13;1.65;;;1.52;;
10166;SDS011;62970;53.130;8.244;2022-08-19T08:48:49;1.60;;;1.30;;
10166;SDS011;62970;53.130;8.244;2022-08-19T08:51:25;1.40;;;1.40;;
10166;SDS011;62970;53.130;8.244;2022-08-19T08:54:01;1.60;;;1.50;;
10166;SDS011;62970;53.130;8.244;2022-08-19T08:56:37;5.10;;;1.45;;
10166;SDS011;62970;53.130;8.244;2022-08-19T08:59:15;1.60;;;1.50;;
10166;SDS011;62970;53.130;8.244;2022-08-19T09:01:50;1.95;;;1.50;;
10166;SDS011;62970;53.130;8.244;2022-08-19T09:04:19;1.88;;;1.70;;
10166;SDS011;62970;53.130;8.244;2022-08-19T09:06:50;1.30;;;1.20;;
10166;SDS011;62970;53.130;8.244;2022-08-19T09:09:30;2.42;;;1.50;;
10166;SDS011;62970;53.130;8.244;2022-08-19T09:12:08;1.60;;;1.50;;
10166;SDS011;62970;53.130;8.244;2022-08-19T09:14:48;1.70;;;1.60;;
10166;SDS011;62970;53.130;8.244;2022-08-19T09:17:24;1.80;;;1.70;;
10166;SDS011;62970;53.130;8.244;2022-08-19T09:19:59;2.70;;;1.70;;
10166;SDS011;62970;53.130;8.244;2022-08-19T09:22:34;1.50;;;1.40;;
10166;SDS011;62970;53.130;8.244;2022-08-19T09:25:05;1.67;;;1.57;;
10166;SDS011;62970;53.130;8.244;2022-08-19T09:27:37;1.50;;;1.40;;
10166;SDS011;62970;53.130;8.244;2022-08-19T09:30:12;2.27;;;1.50;;
10166;SDS011;62970;53.130;8.244;2022-08-19T09:32:47;2.23;;;1.43;;
10166;SDS011;62970;53.130;8.244;2022-08-19T09:35:18;1.83;;;1.60;;
10166;SDS011;62970;53.130;8.244;2022-08-19T09:37:50;1.50;;;1.40;;
10166;SDS011;62970;53.130;8.244;2022-08-19T09:40:21;1.33;;;1.23;;
10166;SDS011;62970;53.130;8.244;2022-08-19T09:42:51;1.60;;;1.50;;
10166;SDS011;62970;53.130;8.244;2022-08-19T09:48:06;1.50;;;1.40;;
10166;SDS011;62970;53.130;8.244;2022-08-19T09:50:35;1.70;;;1.50;;
10166;SDS011;62970;53.130;8.244;2022-08-19T09:53:04;1.73;;;1.50;;
10166;SDS011;62970;53.130;8.244;2022-08-19T19:53:49;4.40;;;3.07;;
10166;SDS011;62970;53.130;8.244;2022-08-19T19:56:19;3.50;;;3.20;;
10166;SDS011;62970;53.130;8.244;2022-08-19T19:58:50;4.57;;;3.40;;
10166;SDS011;62970;53.130;8.244;2022-08-19T20:01:20;4.00;;;3.53;;
10166;SDS011;62970;53.130;8.244;2022-08-19T20:03:52;3.63;;;3.33;;
10166;SDS011;62970;53.130;8.244;2022-08-19T20:06:22;4.00;;;3.67;;
10166;SDS011;62970;53.130;8.244;2022-08-19T20:08:56;3.63;;;3.33;;
10166;SDS011;62970;53.130;8.244;2022-08-19T20:11:42;4.23;;;3.83;;
10166;SDS011;62970;53.130;8.244;2022-08-19T20:14:17;4.90;;;4.50;;
10166;SDS011;62970;53.130;8.244;2022-08-19T20:16:52;4.90;;;4.07;;
10166;SDS011;62970;53.130;8.244;2022-08-19T20:19:25;4.10;;;3.80;;
10166;SDS011;62970;53.130;8.244;2022-08-19T20:22:01;5.50;;;4.07;;
10166;SDS011;62970;53.130;8.244;2022-08-19T20:24:35;5.13;;;4.03;;
10166;SDS011;62970;53.130;8.244;2022-08-19T20:27:06;4.57;;;4.17;;
10166;SDS011;62970;53.130;8.244;2022-08-19T20:29:41;4.33;;;3.97;;
10166;SDS011;62970;53.130;8.244;2022-08-19T20:32:10;4.40;;;4.00;;
10166;SDS011;62970;53.130;8.244;2022-08-19T20:34:40;4.50;;;4.10;;
10166;SDS011;62970;53.130;8.244;2022-08-19T20:37:13;4.83;;;3.67;;
10166;SDS011;62970;53.130;8.244;2022-08-19T20:39:44;4.03;;;3.63;;
10166;SDS011;62970;53.130;8.244;2022-08-19T20:42:16;4.43;;;4.03;;
10166;SDS011;62970;53.130;8.244;2022-08-19T20:44:46;4.33;;;3.93;;
10166;SDS011;62970;53.130;8.244;2022-08-19T20:47:15;4.53;;;4.07;;
10166;SDS011;62970;53.130;8.244;2022-08-19T20:49:46;4.60;;;4.20;;
10166;SDS011;62970;53.130;8.244;2022-08-19T20:52:15;4.13;;;3.80;;
10166;SDS011;62970;53.130;8.244;2022-08-19T20:54:47;4.27;;;3.63;;
10166;SDS011;62970;53.130;8.244;2022-08-19T20:57:17;3.60;;;3.30;;
10166;SDS011;62970;53.130;8.244;2022-08-19T20:59:46;3.87;;;3.33;;
10166;SDS011;62970;53.130;8.244;2022-08-19T21:02:15;3.17;;;2.93;;
10166;SDS011;62970;53.130;8.244;2022-08-19T21:04:45;3.27;;;3.03;;
10166;SDS011;62970;53.130;8.244;2022-08-19T21:07:15;2.97;;;2.77;;
10166;SDS011;62970;53.130;8.244;2022-08-19T21:09:47;4.13;;;3.10;;
10166;SDS011;62970;53.130;8.244;2022-08-19T21:12:17;3.00;;;2.80;;
10166;SDS011;62970;53.130;8.244;2022-08-19T21:14:46;4.00;;;3.37;;
10166;SDS011;62970;53.130;8.244;2022-08-19T21:17:15;3.17;;;2.97;;
10166;SDS011;62970;53.130;8.244;2022-08-19T21:19:44;3.40;;;3.10;;
10166;SDS011;62970;53.130;8.244;2022-08-19T21:22:15;3.17;;;2.97;;
10166;SDS011;62970;53.130;8.244;2022-08-19T21:24:48;3.60;;;3.30;;
10166;SDS011;62970;53.130;8.244;2022-08-19T21:27:17;3.67;;;3.37;;
10166;SDS011;62970;53.130;8.244;2022-08-19T21:29:46;3.70;;;3.40;;
10166;SDS011;62970;53.130;8.244;2022-08-19T21:32:17;3.10;;;2.90;;
10166;SDS011;62970;53.130;8.244;2022-08-19T21:34:47;3.67;;;3.37;;
10166;SDS011;62970;53.130;8.244;2022-08-19T21:37:16;3.73;;;3.43;;
10166;SDS011;62970;53.130;8.244;2022-08-19T21:39:49;3.90;;;3.60;;
10166;SDS011;62970;53.130;8.244;2022-08-19T21:42:18;3.40;;;3.10;;
10166;SDS011;62970;53.130;8.244;2022-08-19T21:44:48;3.83;;;3.10;;
10166;SDS011;62970;53.130;8.244;2022-08-19T21:47:17;3.50;;;3.20;;
10166;SDS011;62970;53.130;8.244;2022-08-19T21:49:47;3.17;;;2.87;;
10166;SDS011;62970;53.130;8.244;2022-08-19T21:52:19;3.30;;;3.00;;
10166;SDS011;62970;53.130;8.244;2022-08-19T21:54:53;3.70;;;3.40;;
10166;SDS011;62970;53.130;8.244;2022-08-19T21:57:24;3.20;;;2.90;;
10166;SDS011;62970;53.130;8.244;2022-08-19T21:59:53;3.23;;;2.93;;
10166;SDS011;62970;53.130;8.244;2022-08-19T22:02:23;3.80;;;3.50;;
10166;SDS011;62970;53.130;8.244;2022-08-19T22:04:52;4.17;;;3.47;;
10166;SDS011;62970;53.130;8.244;2022-08-19T22:07:21;3.30;;;3.10;;
10166;SDS011;62970;53.130;8.244;2022-08-19T22:09:51;3.53;;;3.30;;
10166;SDS011;62970;53.130;8.244;2022-08-19T22:12:24;2.93;;;2.73;;
10166;SDS011;62970;53.130;8.244;2022-08-19T22:14:57;3.20;;;2.90;;
10166;SDS011;62970;53.130;8.244;2022-08-19T22:17:27;3.37;;;3.07;;
10166;SDS011;62970;53.130;8.244;2022-08-19T22:19:57;3.20;;;2.97;;
10166;SDS011;62970;53.130;8.244;2022-08-19T22:22:27;3.07;;;2.77;;
10166;SDS011;62970;53.130;8.244;2022-08-19T22:25:03;3.50;;;3.20;;
10166;SDS011;62970;53.130;8.244;2022-08-19T22:27:41;3.87;;;3.40;;
10166;SDS011;62970;53.130;8.244;2022-08-19T22:30:11;3.60;;;3.30;;
10166;SDS011;62970;53.130;8.244;2022-08-19T22:32:46;3.30;;;3.10;;
10166;SDS011;62970;53.130;8.244;2022-08-19T22:35:18;3.17;;;2.90;;
10166;SDS011;62970;53.130;8.244;2022-08-19T22:37:52;3.43;;;3.13;;
10166;SDS011;62970;53.130;8.244;2022-08-19T22:40:26;3.43;;;3.03;;
10166;SDS011;62970;53.130;8.244;2022-08-19T22:42:58;3.47;;;3.17;;
10166;SDS011;62970;53.130;8.244;2022-08-19T22:45:29;3.40;;;3.10;;
10166;SDS011;62970;53.130;8.244;2022-08-19T22:48:00;3.07;;;2.80;;
10166;SDS011;62970;53.130;8.244;2022-08-19T22:50:31;3.83;;;3.50;;
10166;SDS011;62970;53.130;8.244;2022-08-19T22:53:01;4.60;;;4.20;;
10166;SDS011;62970;53.130;8.244;2022-08-19T22:55:31;4.73;;;4.23;;
10166;SDS011;62970;53.130;8.244;2022-08-19T22:58:02;6.13;;;4.70;;
10166;SDS011;62970;53.130;8.244;2022-08-19T23:00:33;5.13;;;4.63;;
10166;SDS011;62970;53.130;8.244;2022-08-19T23:03:02;5.43;;;4.70;;
10166;SDS011;62970;53.130;8.244;2022-08-19T23:05:32;5.10;;;4.70;;
10166;SDS011;62970;53.130;8.244;2022-08-19T23:08:02;5.53;;;5.03;;
10166;SDS011;62970;53.130;8.244;2022-08-19T23:10:34;5.37;;;4.93;;
10166;SDS011;62970;53.130;8.244;2022-08-19T23:13:03;5.53;;;5.03;;
10166;SDS011;62970;53.130;8.244;2022-08-19T23:15:33;8.97;;;5.27;;
10166;SDS011;62970;53.130;8.244;2022-08-19T23:18:03;6.53;;;5.93;;
10166;SDS011;62970;53.130;8.244;2022-08-19T23:20:34;6.57;;;5.83;;
10166;SDS011;62970;53.130;8.244;2022-08-19T23:23:09;6.37;;;5.87;;
10166;SDS011;62970;53.130;8.244;2022-08-19T23:25:45;6.50;;;5.90;;
10166;SDS011;62970;53.130;8.244;2022-08-19T23:28:15;6.73;;;6.13;;
10166;SDS011;62970;53.130;8.244;2022-08-19T23:30:57;7.63;;;6.27;;
10166;SDS011;62970;53.130;8.244;2022-08-19T23:33:28;6.27;;;5.63;;
10166;SDS011;62970;53.130;8.244;2022-08-19T23:36:01;6.53;;;6.00;;
10166;SDS011;62970;53.130;8.244;2022-08-19T23:38:35;6.60;;;5.97;;
10166;SDS011;62970;53.130;8.244;2022-08-19T23:41:07;5.77;;;5.27;;
10166;SDS011;62970;53.130;8.244;2022-08-19T23:43:39;5.73;;;4.87;;
10166;SDS011;62970;53.130;8.244;2022-08-19T23:46:09;7.20;;;5.27;;
10166;SDS011;62970;53.130;8.244;2022-08-19T23:48:43;5.13;;;4.73;;
10166;SDS011;62970;53.130;8.244;2022-08-19T23:51:13;5.37;;;4.83;;
10166;SDS011;62970;53.130;8.244;2022-08-19T23:53:44;5.37;;;4.87;;
10166;SDS011;62970;53.130;8.244;2022-08-19T23:56:16;5.10;;;4.70;;
10166;SDS011;62970;53.130;8.244;2022-08-19T23:58:46;5.20;;;4.80;;
